Time;durP1;ratioP1;P1;durP2;ratioP2;P2;SDS_P1;SDS_P2;PMS_P1;PMS_P2;Temp;Humidity;BMP_temperature;BMP_pressure;BME280_temperature;BME280_humidity;BME280_pressure;Samples;Min_cycle;Max_cycle;Signal;HPM_P1;HPM_P2
2022/04/29 00:00:27;;;;;;;30.65;6.93;;;;;;;;;;5045389;28;20035;-77
2022/04/29 00:02:53;;;;;;;24.27;7.22;;;;;;;;;;5042215;28;20104;-77
2022/04/29 00:05:19;;;;;;;27.65;6.53;;;;;;;;;;5039206;28;20053;-78
2022/04/29 00:07:46;;;;;;;24.60;6.53;;;;;;;;;;5040271;28;20026;-79
2022/04/29 00:10:13;;;;;;;24.85;6.57;;;;;;;;;;5045052;28;20068;-77
2022/04/29 00:12:49;;;;;;;20.70;6.35;;;;;;;;;;5043122;28;20048;-77
2022/04/29 00:15:16;;;;;;;23.92;6.68;;;;;;;;;;5039692;28;20021;-78
2022/04/29 00:17:42;;;;;;;20.13;6.82;;;;;;;;;;5037207;28;20044;-78
2022/04/29 00:20:09;;;;;;;34.45;7.53;;;;;;;;;;5042063;28;20030;-77
2022/04/29 00:22:35;;;;;;;25.20;7.40;;;;;;;;;;5042090;28;20025;-79
2022/04/29 00:25:01;;;;;;;18.95;6.22;;;;;;;;;;5040674;28;20042;-76
2022/04/29 00:27:27;;;;;;;24.00;6.40;;;;;;;;;;5040367;28;20030;-76
2022/04/29 00:29:53;;;;;;;28.27;7.18;;;;;;;;;;5041332;28;20033;-75
2022/04/29 00:32:19;;;;;;;25.52;7.63;;;;;;;;;;5039225;28;20036;-77
2022/04/29 00:34:45;;;;;;;35.65;7.60;;;;;;;;;;5039836;28;20041;-76
2022/04/29 00:37:11;;;;;;;23.00;6.82;;;;;;;;;;5045258;28;20045;-77
2022/04/29 00:39:37;;;;;;;18.65;6.70;;;;;;;;;;5047581;28;20431;-77
2022/04/29 00:42:13;;;;;;;19.40;7.07;;;;;;;;;;5047150;28;20073;-78
2022/04/29 00:44:40;;;;;;;15.90;6.20;;;;;;;;;;5048134;28;20026;-76
2022/04/29 00:47:06;;;;;;;28.45;7.55;;;;;;;;;;5045521;28;20021;-78
2022/04/29 00:49:32;;;;;;;21.90;6.95;;;;;;;;;;5045437;28;20556;-77
2022/04/29 00:51:58;;;;;;;25.20;7.25;;;;;;;;;;5043114;28;20030;-79
2022/04/29 00:54:32;;;;;;;20.90;7.28;;;;;;;;;;5039057;28;20036;-79
2022/04/29 00:56:58;;;;;;;27.73;7.82;;;;;;;;;;5043786;28;20017;-77
2022/04/29 00:59:36;;;;;;;20.02;7.93;;;;;;;;;;5047102;28;20032;-78
2022/04/29 01:02:03;;;;;;;29.85;8.55;;;;;;;;;;5042080;28;20160;-77
2022/04/29 01:04:32;;;;;;;21.15;7.40;;;;;;;;;;5039011;28;20063;-79
2022/04/29 01:06:58;;;;;;;20.13;7.93;;;;;;;;;;5038531;28;20032;-78
2022/04/29 01:09:24;;;;;;;22.80;7.53;;;;;;;;;;5038297;28;20033;-77
2022/04/29 01:11:51;;;;;;;28.73;8.13;;;;;;;;;;5037181;28;20091;-75
2022/04/29 01:14:17;;;;;;;29.15;8.13;;;;;;;;;;5051534;28;20069;-76
2022/04/29 01:16:43;;;;;;;29.60;8.25;;;;;;;;;;5056194;28;20033;-76
2022/04/29 01:19:09;;;;;;;24.85;8.02;;;;;;;;;;5050339;28;20036;-79
2022/04/29 01:21:35;;;;;;;24.08;7.93;;;;;;;;;;5046090;28;20052;-76
2022/04/29 01:24:01;;;;;;;23.42;7.20;;;;;;;;;;5041811;28;20045;-77
2022/04/29 01:26:27;;;;;;;26.35;7.30;;;;;;;;;;5043570;28;20033;-76
2022/04/29 01:28:53;;;;;;;26.70;8.80;;;;;;;;;;5036588;28;20036;-77
2022/04/29 01:31:22;;;;;;;25.58;7.78;;;;;;;;;;5036328;28;20064;-76
2022/04/29 01:33:48;;;;;;;21.23;7.38;;;;;;;;;;5037168;28;20060;-78
2022/04/29 01:36:14;;;;;;;34.58;8.27;;;;;;;;;;5037560;28;20072;-76
2022/04/29 01:38:40;;;;;;;26.27;7.75;;;;;;;;;;5037096;28;20115;-79
2022/04/29 01:41:06;;;;;;;24.33;7.65;;;;;;;;;;5038275;28;20033;-78
2022/04/29 01:43:33;;;;;;;22.23;7.38;;;;;;;;;;5037104;28;20112;-79
2022/04/29 01:45:59;;;;;;;18.17;7.38;;;;;;;;;;5033676;28;20132;-77
2022/04/29 01:48:25;;;;;;;23.15;8.70;;;;;;;;;;5034140;28;20029;-76
2022/04/29 01:50:51;;;;;;;27.88;9.38;;;;;;;;;;5037298;28;20033;-78
2022/04/29 01:53:17;;;;;;;24.23;8.13;;;;;;;;;;5036492;28;20091;-78
2022/04/29 01:55:43;;;;;;;22.02;8.30;;;;;;;;;;5035562;28;20429;-78
2022/04/29 01:58:09;;;;;;;21.42;8.55;;;;;;;;;;5035227;28;20032;-77
2022/04/29 02:00:35;;;;;;;17.73;7.68;;;;;;;;;;5037673;28;20482;-78
2022/04/29 02:03:01;;;;;;;33.95;8.43;;;;;;;;;;5037273;28;20091;-76
2022/04/29 02:05:27;;;;;;;26.67;8.10;;;;;;;;;;5037098;28;20040;-78
2022/04/29 02:07:53;;;;;;;23.50;7.95;;;;;;;;;;5037036;28;20332;-78
2022/04/29 02:10:20;;;;;;;24.83;8.82;;;;;;;;;;5040691;28;20077;-77
2022/04/29 02:12:46;;;;;;;29.88;8.48;;;;;;;;;;5037507;28;20067;-76
2022/04/29 02:15:14;;;;;;;20.38;8.05;;;;;;;;;;5035342;28;20022;-76
2022/04/29 02:17:40;;;;;;;21.48;8.20;;;;;;;;;;5036328;28;20037;-77
2022/04/29 02:20:06;;;;;;;26.70;9.02;;;;;;;;;;5037239;28;20052;-77
2022/04/29 02:22:32;;;;;;;27.45;8.02;;;;;;;;;;5035766;28;20056;-77
2022/04/29 02:24:58;;;;;;;25.55;8.60;;;;;;;;;;5034726;28;20025;-76
2022/04/29 02:27:24;;;;;;;18.75;7.65;;;;;;;;;;5034315;28;20475;-77
2022/04/29 02:29:50;;;;;;;19.88;7.95;;;;;;;;;;5033659;28;20045;-76
2022/04/29 02:32:17;;;;;;;20.10;7.93;;;;;;;;;;5046285;28;20018;-75
2022/04/29 02:34:43;;;;;;;32.38;8.35;;;;;;;;;;5043353;28;20025;-78
2022/04/29 02:37:10;;;;;;;22.45;8.27;;;;;;;;;;5035589;28;20045;-77
2022/04/29 02:39:37;;;;;;;18.40;8.32;;;;;;;;;;5036119;28;20024;-77
2022/04/29 02:42:04;;;;;;;26.27;8.38;;;;;;;;;;5038606;28;20033;-78
2022/04/29 02:44:30;;;;;;;20.08;8.18;;;;;;;;;;5040757;28;20029;-77
2022/04/29 02:47:08;;;;;;;29.63;8.63;;;;;;;;;;5040897;28;20032;-78
2022/04/29 02:49:41;;;;;;;30.08;9.27;;;;;;;;;;5040755;28;20490;-78
2022/04/29 02:52:08;;;;;;;23.33;8.07;;;;;;;;;;5041339;28;20067;-76
2022/04/29 02:54:34;;;;;;;25.85;8.50;;;;;;;;;;5039647;28;20034;-77
2022/04/29 02:57:00;;;;;;;27.58;7.95;;;;;;;;;;5047573;28;20036;-78
2022/04/29 02:59:26;;;;;;;26.63;9.23;;;;;;;;;;5045682;28;20030;-77
2022/04/29 03:01:53;;;;;;;22.20;8.30;;;;;;;;;;5042977;28;20037;-78
2022/04/29 03:04:19;;;;;;;22.33;8.00;;;;;;;;;;5042101;28;20448;-77
2022/04/29 03:06:45;;;;;;;24.55;8.43;;;;;;;;;;5038929;28;20104;-76
2022/04/29 03:09:11;;;;;;;21.92;9.05;;;;;;;;;;5038146;28;20027;-78
2022/04/29 03:11:37;;;;;;;26.20;8.55;;;;;;;;;;5035749;28;20022;-78
2022/04/29 03:14:03;;;;;;;28.65;9.60;;;;;;;;;;5035642;28;20095;-77
2022/04/29 03:16:29;;;;;;;25.98;8.90;;;;;;;;;;5058284;23;20043;-74
2022/04/29 03:18:55;;;;;;;27.95;8.40;;;;;;;;;;5015026;28;20117;-72
2022/04/29 03:21:21;;;;;;;24.27;8.48;;;;;;;;;;5032494;28;20470;-74
2022/04/29 03:23:48;;;;;;;27.77;9.50;;;;;;;;;;5015004;28;20071;-74
2022/04/29 03:26:14;;;;;;;23.05;8.10;;;;;;;;;;5033006;28;20505;-74
2022/04/29 03:28:40;;;;;;;26.88;9.10;;;;;;;;;;5032136;28;20037;-72
2022/04/29 03:31:06;;;;;;;29.27;8.40;;;;;;;;;;5031904;28;20033;-72
2022/04/29 03:33:32;;;;;;;25.20;8.90;;;;;;;;;;5032156;28;20394;-72
2022/04/29 03:35:58;;;;;;;26.17;8.95;;;;;;;;;;5031707;28;20052;-72
2022/04/29 03:38:25;;;;;;;23.88;9.50;;;;;;;;;;5031930;28;20493;-72
2022/04/29 03:40:51;;;;;;;20.85;8.65;;;;;;;;;;5031761;28;20025;-73
2022/04/29 03:43:17;;;;;;;25.48;8.85;;;;;;;;;;5031808;28;20030;-72
2022/04/29 03:45:43;;;;;;;27.52;9.20;;;;;;;;;;5031665;28;20021;-73
2022/04/29 03:48:10;;;;;;;22.55;8.80;;;;;;;;;;5031785;28;20433;-73
2022/04/29 03:50:36;;;;;;;22.05;8.82;;;;;;;;;;5031811;28;20033;-72
2022/04/29 03:53:03;;;;;;;19.80;7.95;;;;;;;;;;5013977;28;20120;-73
2022/04/29 03:55:30;;;;;;;18.95;8.93;;;;;;;;;;5031236;28;20489;-72
2022/04/29 03:57:57;;;;;;;27.70;10.00;;;;;;;;;;5031414;28;20017;-73
2022/04/29 04:00:24;;;;;;;21.27;9.27;;;;;;;;;;5031806;28;20432;-72
2022/04/29 04:02:50;;;;;;;24.50;8.77;;;;;;;;;;5031474;28;20183;-72
2022/04/29 04:05:17;;;;;;;21.70;9.40;;;;;;;;;;5031004;28;20486;-73
2022/04/29 04:07:43;;;;;;;19.90;8.52;;;;;;;;;;5031251;28;20082;-72
2022/04/29 04:10:10;;;;;;;18.23;8.68;;;;;;;;;;5031465;28;20117;-72
2022/04/29 04:12:42;;;;;;;22.48;8.15;;;;;;;;;;5036852;28;20104;-72
2022/04/29 04:15:09;;;;;;;23.48;9.38;;;;;;;;;;5034897;28;20026;-73
2022/04/29 04:17:35;;;;;;;26.65;9.68;;;;;;;;;;5034725;28;20025;-74
2022/04/29 04:20:01;;;;;;;20.60;8.82;;;;;;;;;;5034825;28;20429;-72
2022/04/29 04:22:27;;;;;;;19.90;8.88;;;;;;;;;;5035229;28;20023;-73
2022/04/29 04:24:53;;;;;;;21.88;9.50;;;;;;;;;;5017194;28;20518;-73
2022/04/29 04:27:19;;;;;;;24.17;10.07;;;;;;;;;;5035065;28;20086;-72
2022/04/29 04:29:45;;;;;;;22.92;8.57;;;;;;;;;;5033963;28;20492;-72
2022/04/29 04:32:11;;;;;;;24.67;9.93;;;;;;;;;;5036047;28;20056;-73
2022/04/29 04:34:57;;;;;;;26.17;9.75;;;;;;;;;;5037780;28;20025;-73
2022/04/29 04:37:24;;;;;;;31.63;11.90;;;;;;;;;;5037417;28;20474;-73
2022/04/29 04:39:50;;;;;;;28.80;10.43;;;;;;;;;;5035291;28;20029;-72
2022/04/29 04:42:17;;;;;;;20.63;9.32;;;;;;;;;;5035102;28;20018;-72
2022/04/29 04:44:45;;;;;;;22.45;9.25;;;;;;;;;;5035195;28;20021;-72
2022/04/29 04:47:11;;;;;;;25.95;10.88;;;;;;;;;;5034141;28;20604;-72
2022/04/29 04:49:37;;;;;;;25.02;10.38;;;;;;;;;;5034246;28;20076;-72
2022/04/29 04:52:03;;;;;;;25.08;11.10;;;;;;;;;;5034384;28;20502;-73
2022/04/29 04:54:29;;;;;;;29.20;9.38;;;;;;;;;;5034154;28;20106;-72
2022/04/29 04:56:55;;;;;;;27.65;9.30;;;;;;;;;;5039568;28;20087;-71
2022/04/29 04:59:21;;;;;;;30.60;9.10;;;;;;;;;;5037169;28;20382;-72
2022/04/29 05:01:47;;;;;;;29.08;10.13;;;;;;;;;;5034352;28;20026;-73
2022/04/29 05:04:13;;;;;;;23.13;9.32;;;;;;;;;;5034558;28;20455;-73
2022/04/29 05:06:40;;;;;;;21.17;9.02;;;;;;;;;;5034296;28;20029;-72
2022/04/29 05:09:06;;;;;;;24.08;9.65;;;;;;;;;;5034705;28;20112;-73
2022/04/29 05:11:32;;;;;;;21.83;9.25;;;;;;;;;;5034962;28;20025;-72
2022/04/29 05:13:58;;;;;;;23.90;8.70;;;;;;;;;;5035030;28;20093;-72
2022/04/29 05:16:25;;;;;;;22.95;9.10;;;;;;;;;;5034627;28;20036;-73
2022/04/29 05:18:51;;;;;;;31.88;9.48;;;;;;;;;;5034839;28;20105;-73
2022/04/29 05:21:17;;;;;;;27.50;9.20;;;;;;;;;;5033486;28;20060;-75
2022/04/29 05:23:43;;;;;;;53.58;29.70;;;;;;;;;;5034792;28;20022;-74
2022/04/29 05:26:09;;;;;;;27.40;9.40;;;;;;;;;;5033497;28;20033;-73
2022/04/29 05:28:35;;;;;;;18.73;9.15;;;;;;;;;;5035302;28;20025;-73
2022/04/29 05:31:01;;;;;;;22.88;9.00;;;;;;;;;;5036234;28;20029;-74
2022/04/29 05:33:28;;;;;;;21.90;9.23;;;;;;;;;;5037308;28;20597;-73
2022/04/29 05:35:54;;;;;;;22.85;9.05;;;;;;;;;;5036401;28;20036;-73
2022/04/29 05:38:20;;;;;;;17.90;8.05;;;;;;;;;;5036467;28;20393;-73
2022/04/29 05:43:31;;;;;;;32.88;8.80;;;;;;;;;;5035623;28;20387;-73
2022/04/29 05:45:57;;;;;;;22.73;9.35;;;;;;;;;;5034894;28;20025;-73
2022/04/29 05:48:23;;;;;;;19.58;7.60;;;;;;;;;;5035513;28;20037;-74
2022/04/29 05:50:49;;;;;;;27.85;9.82;;;;;;;;;;5036766;28;20030;-75
2022/04/29 05:53:15;;;;;;;17.27;8.20;;;;;;;;;;5035853;28;20030;-75
2022/04/29 05:55:42;;;;;;;23.20;8.45;;;;;;;;;;5033387;28;20070;-74
2022/04/29 05:58:08;;;;;;;20.92;8.80;;;;;;;;;;5034603;28;20033;-75
2022/04/29 06:00:34;;;;;;;22.20;8.63;;;;;;;;;;5031867;28;20025;-73
2022/04/29 06:03:00;;;;;;;20.90;7.85;;;;;;;;;;5034558;28;20100;-75
2022/04/29 06:05:26;;;;;;;26.52;8.90;;;;;;;;;;5038827;28;20029;-75
2022/04/29 06:07:55;;;;;;;21.02;8.15;;;;;;;;;;5039035;28;20406;-75
2022/04/29 06:10:21;;;;;;;25.13;8.55;;;;;;;;;;5036240;28;20035;-74
2022/04/29 06:12:47;;;;;;;24.23;8.35;;;;;;;;;;5038885;28;20029;-72
2022/04/29 06:15:14;;;;;;;19.90;7.68;;;;;;;;;;5039183;28;20029;-75
2022/04/29 06:17:40;;;;;;;29.70;8.90;;;;;;;;;;5037858;28;20104;-73
2022/04/29 06:20:06;;;;;;;24.77;9.95;;;;;;;;;;5036641;28;20040;-72
2022/04/29 06:22:33;;;;;;;22.92;8.48;;;;;;;;;;5033530;28;20018;-73
2022/04/29 06:24:59;;;;;;;20.60;7.93;;;;;;;;;;5033342;28;20431;-74
2022/04/29 06:27:25;;;;;;;25.70;7.70;;;;;;;;;;5033195;28;20029;-73
2022/04/29 06:29:51;;;;;;;25.55;7.35;;;;;;;;;;5032947;28;20188;-73
2022/04/29 06:32:17;;;;;;;22.15;7.35;;;;;;;;;;5032775;28;20072;-72
2022/04/29 06:34:43;;;;;;;24.52;7.40;;;;;;;;;;5032322;28;20067;-73
2022/04/29 06:37:10;;;;;;;17.10;7.13;;;;;;;;;;5032788;28;20017;-73
2022/04/29 06:39:37;;;;;;;27.25;7.10;;;;;;;;;;5033538;28;20025;-73
2022/04/29 06:42:03;;;;;;;26.25;7.10;;;;;;;;;;5033133;28;20084;-73
2022/04/29 06:44:29;;;;;;;19.73;7.13;;;;;;;;;;5033268;28;20368;-73
2022/04/29 06:46:55;;;;;;;21.13;6.78;;;;;;;;;;5033749;28;20021;-71
2022/04/29 06:49:21;;;;;;;18.80;5.90;;;;;;;;;;5032827;28;20474;-72
2022/04/29 06:51:47;;;;;;;18.98;7.82;;;;;;;;;;5033507;28;20022;-73
2022/04/29 06:54:13;;;;;;;19.15;6.25;;;;;;;;;;5032434;28;20080;-73
2022/04/29 06:56:39;;;;;;;21.65;6.55;;;;;;;;;;5031975;28;20026;-73
2022/04/29 06:59:05;;;;;;;20.13;6.15;;;;;;;;;;5032017;28;20493;-73
2022/04/29 07:01:32;;;;;;;18.42;5.95;;;;;;;;;;5032703;28;20402;-73
2022/04/29 07:03:58;;;;;;;25.35;6.03;;;;;;;;;;5032903;28;20021;-72
2022/04/29 07:06:24;;;;;;;14.60;5.22;;;;;;;;;;5032388;28;20470;-71
2022/04/29 07:08:50;;;;;;;20.08;7.78;;;;;;;;;;5036703;28;20101;-71
2022/04/29 07:11:16;;;;;;;19.33;4.30;;;;;;;;;;5043741;28;20053;-72
2022/04/29 07:13:44;;;;;;;10.85;4.35;;;;;;;;;;5041441;28;20087;-73
2022/04/29 07:16:10;;;;;;;16.50;4.30;;;;;;;;;;5040500;28;20109;-71
2022/04/29 07:18:37;;;;;;;18.63;5.15;;;;;;;;;;5036166;28;20026;-71
2022/04/29 07:21:03;;;;;;;14.15;4.78;;;;;;;;;;5033356;28;20021;-71
2022/04/29 07:23:29;;;;;;;24.65;5.03;;;;;;;;;;5032610;28;20039;-73
2022/04/29 07:25:55;;;;;;;17.15;4.45;;;;;;;;;;5032142;28;20482;-73
2022/04/29 07:28:22;;;;;;;15.90;4.32;;;;;;;;;;5038605;28;20475;-73
2022/04/29 07:30:48;;;;;;;16.30;4.53;;;;;;;;;;5036232;28;20025;-72
2022/04/29 07:33:14;;;;;;;16.33;4.30;;;;;;;;;;5034048;28;20032;-73
2022/04/29 07:43:55;;;;;;;12.75;3.50;;;;;;;;;;5038722;28;20036;-71
2022/04/29 07:46:21;;;;;;;12.85;3.53;;;;;;;;;;5043415;28;20478;-72
2022/04/29 07:48:48;;;;;;;9.07;2.95;;;;;;;;;;5041637;28;20026;-71
2022/04/29 07:51:14;;;;;;;16.42;3.33;;;;;;;;;;5040279;28;20176;-74
2022/04/29 07:53:40;;;;;;;10.73;3.05;;;;;;;;;;5040176;28;20502;-71
2022/04/29 07:56:06;;;;;;;13.25;3.10;;;;;;;;;;5040387;28;20101;-71
2022/04/29 07:58:32;;;;;;;13.85;3.28;;;;;;;;;;5041070;28;20119;-72
2022/04/29 08:00:58;;;;;;;13.07;3.28;;;;;;;;;;5040571;28;20025;-72
2022/04/29 08:03:24;;;;;;;11.73;3.20;;;;;;;;;;5039434;28;20021;-72
2022/04/29 08:05:51;;;;;;;10.63;3.05;;;;;;;;;;5038928;28;20026;-73
2022/04/29 08:08:17;;;;;;;9.75;2.85;;;;;;;;;;5039278;28;20022;-72
2022/04/29 08:10:43;;;;;;;14.27;3.28;;;;;;;;;;5040770;28;20029;-74
2022/04/29 08:13:09;;;;;;;10.00;2.95;;;;;;;;;;5042702;28;20061;-75
2022/04/29 08:15:35;;;;;;;12.80;3.30;;;;;;;;;;5041849;28;20034;-75
2022/04/29 08:18:01;;;;;;;11.32;2.72;;;;;;;;;;5043992;28;20053;-76
2022/04/29 08:20:27;;;;;;;15.93;3.80;;;;;;;;;;5036521;28;20479;-77
2022/04/29 08:22:53;;;;;;;13.95;3.03;;;;;;;;;;5035847;28;20030;-75
2022/04/29 08:25:19;;;;;;;15.27;3.40;;;;;;;;;;5035985;28;20021;-72
2022/04/29 08:27:46;;;;;;;13.68;4.13;;;;;;;;;;5036975;28;20029;-72
2022/04/29 08:30:13;;;;;;;13.30;3.30;;;;;;;;;;5035262;28;20025;-73
2022/04/29 08:32:40;;;;;;;11.32;2.80;;;;;;;;;;5037626;28;20029;-73
2022/04/29 08:35:06;;;;;;;8.43;2.72;;;;;;;;;;5035524;28;20053;-72
2022/04/29 08:37:32;;;;;;;14.60;2.70;;;;;;;;;;5034621;28;20026;-72
2022/04/29 08:40:00;;;;;;;10.23;2.92;;;;;;;;;;5035141;28;20021;-71
2022/04/29 08:42:28;;;;;;;11.45;3.55;;;;;;;;;;5035188;28;20312;-72
2022/04/29 08:44:54;;;;;;;19.00;5.05;;;;;;;;;;5035205;28;20053;-71
2022/04/29 08:47:20;;;;;;;12.68;6.10;;;;;;;;;;5034496;28;20033;-72
2022/04/29 08:49:47;;;;;;;12.35;4.20;;;;;;;;;;5034590;28;20030;-72
2022/04/29 08:52:14;;;;;;;13.40;4.07;;;;;;;;;;5034710;28;20117;-72
2022/04/29 09:00:13;;;;;;;19.85;3.85;;;;;;;;;;5035019;28;20052;-72
2022/04/29 09:02:40;;;;;;;5.88;3.00;;;;;;;;;;5034659;28;20020;-72
2022/04/29 09:05:08;;;;;;;15.43;3.47;;;;;;;;;;5034537;28;20029;-70
2022/04/29 09:07:53;;;;;;;12.27;3.38;;;;;;;;;;5034466;28;20509;-73
2022/04/29 09:10:19;;;;;;;9.95;3.40;;;;;;;;;;5037630;28;20132;-74
2022/04/29 09:12:45;;;;;;;11.70;3.53;;;;;;;;;;5034602;28;20135;-77
2022/04/29 09:15:12;;;;;;;16.92;4.38;;;;;;;;;;5035238;28;20474;-73
2022/04/29 09:17:39;;;;;;;12.10;3.38;;;;;;;;;;5061583;22;20041;-78
2022/04/29 09:20:13;;;;;;;12.55;2.90;;;;;;;;;;5040035;28;20018;-78
2022/04/29 09:22:39;;;;;;;17.33;2.95;;;;;;;;;;5039175;28;20021;-77
2022/04/29 09:25:05;;;;;;;11.68;3.35;;;;;;;;;;5040230;28;20029;-77
2022/04/29 09:27:31;;;;;;;11.88;2.42;;;;;;;;;;5038592;28;20052;-78
2022/04/29 09:30:00;;;;;;;9.45;2.95;;;;;;;;;;5038581;28;20064;-77
2022/04/29 09:32:46;;;;;;;17.67;3.10;;;;;;;;;;5040497;28;20100;-78
2022/04/29 09:35:12;;;;;;;12.82;3.45;;;;;;;;;;5038663;28;20056;-75
2022/04/29 09:39:26;;;;;;;14.65;2.95;;;;;;;;;;5037383;28;20030;-77
2022/04/29 09:40:37;;;;;;;9.43;3.42;;;;;;;;;;5038566;28;20093;-78
2022/04/29 09:43:03;;;;;;;11.35;3.20;;;;;;;;;;5050521;28;20410;-77
2022/04/29 09:45:29;;;;;;;17.45;2.72;;;;;;;;;;5055807;28;20029;-75
2022/04/29 09:47:58;;;;;;;15.82;3.80;;;;;;;;;;5058331;28;20077;-74
2022/04/29 09:50:47;;;;;;;10.02;3.00;;;;;;;;;;5052625;28;20505;-77
2022/04/29 09:53:33;;;;;;;9.15;2.83;;;;;;;;;;5032799;28;20040;-78
2022/04/29 09:56:06;;;;;;;8.00;2.53;;;;;;;;;;5041185;28;20075;-78
2022/04/29 09:58:32;;;;;;;13.25;3.03;;;;;;;;;;5039081;28;20025;-80
2022/04/29 10:01:00;;;;;;;7.18;2.78;;;;;;;;;;5040744;28;20031;-79
2022/04/29 10:03:26;;;;;;;12.68;2.70;;;;;;;;;;5041657;28;20029;-79
2022/04/29 10:05:53;;;;;;;10.98;3.08;;;;;;;;;;5042395;28;20064;-77
2022/04/29 10:08:20;;;;;;;14.30;2.80;;;;;;;;;;5043820;28;20139;-80
2022/04/29 10:10:47;;;;;;;8.38;2.70;;;;;;;;;;5039650;28;20039;-76
2022/04/29 10:13:14;;;;;;;11.93;2.72;;;;;;;;;;5039287;28;20025;-75
2022/04/29 10:15:41;;;;;;;11.57;2.33;;;;;;;;;;5036832;28;20498;-77
2022/04/29 10:23:38;;;;;;;11.75;3.17;;;;;;;;;;5036243;28;20433;-77
2022/04/29 10:26:04;;;;;;;13.55;2.20;;;;;;;;;;5036306;28;20037;-77
2022/04/29 10:28:31;;;;;;;10.80;2.63;;;;;;;;;;5034925;28;20061;-77
2022/04/29 10:31:06;;;;;;;7.68;2.42;;;;;;;;;;5037277;28;20029;-76
2022/04/29 10:33:32;;;;;;;14.48;2.60;;;;;;;;;;5038326;28;20026;-76
2022/04/29 10:36:06;;;;;;;13.93;2.47;;;;;;;;;;5040194;28;20025;-77
2022/04/29 10:38:40;;;;;;;12.88;3.40;;;;;;;;;;5050101;28;20075;-77
2022/04/29 10:41:10;;;;;;;8.23;2.55;;;;;;;;;;5049761;28;20026;-77
2022/04/29 10:44:03;;;;;;;9.68;2.50;;;;;;;;;;5042092;28;20021;-77
2022/04/29 10:46:33;;;;;;;7.75;2.33;;;;;;;;;;5040925;28;20031;-76
2022/04/29 10:49:19;;;;;;;9.02;2.67;;;;;;;;;;5046045;28;20025;-77
2022/04/29 10:51:46;;;;;;;7.57;2.60;;;;;;;;;;5056740;28;20025;-75
2022/04/29 10:54:12;;;;;;;12.98;2.67;;;;;;;;;;5056662;28;20085;-74
2022/04/29 10:56:39;;;;;;;6.85;2.05;;;;;;;;;;5056712;28;20021;-74
2022/04/29 10:59:09;;;;;;;14.32;3.67;;;;;;;;;;5057332;28;20017;-76
2022/04/29 11:01:36;;;;;;;9.75;2.40;;;;;;;;;;5057867;28;20045;-76
2022/04/29 11:04:02;;;;;;;9.90;2.40;;;;;;;;;;5057517;28;20016;-76
2022/04/29 11:06:45;;;;;;;9.00;2.53;;;;;;;;;;5057475;28;20026;-75
2022/04/29 11:09:28;;;;;;;9.82;2.95;;;;;;;;;;5055987;28;20024;-76
2022/04/29 11:11:54;;;;;;;11.80;3.80;;;;;;;;;;5056847;28;20010;-78
2022/04/29 11:14:20;;;;;;;10.13;2.50;;;;;;;;;;5042807;28;20033;-77
2022/04/29 11:16:52;;;;;;;17.33;2.47;;;;;;;;;;5035902;28;20033;-77
2022/04/29 11:19:22;;;;;;;7.55;1.95;;;;;;;;;;5036490;28;20018;-77
2022/04/29 11:24:42;;;;;;;18.15;4.72;;;;;;;;;;5047964;28;20052;-79
2022/04/29 11:27:09;;;;;;;14.32;3.20;;;;;;;;;;5049211;28;20032;-78
2022/04/29 11:29:42;;;;;;;15.35;3.13;;;;;;;;;;5049470;28;20040;-78
2022/04/29 11:32:09;;;;;;;11.65;2.50;;;;;;;;;;5044295;28;20017;-80
2022/04/29 11:34:35;;;;;;;13.18;2.97;;;;;;;;;;5043713;28;20475;-79
2022/04/29 11:37:01;;;;;;;8.38;3.10;;;;;;;;;;5044932;28;20032;-78
2022/04/29 11:39:27;;;;;;;14.48;3.97;;;;;;;;;;5041221;28;20025;-76
2022/04/29 11:41:54;;;;;;;12.88;3.03;;;;;;;;;;5041551;28;20021;-76
2022/04/29 11:44:40;;;;;;;9.38;2.90;;;;;;;;;;5039777;28;20425;-77
2022/04/29 11:47:06;;;;;;;14.60;3.13;;;;;;;;;;5040727;28;20013;-77
2022/04/29 11:49:33;;;;;;;13.00;2.95;;;;;;;;;;5041320;28;20026;-76
2022/04/29 11:52:18;;;;;;;16.23;8.60;;;;;;;;;;5041732;28;20029;-76
2022/04/29 11:54:53;;;;;;;8.13;3.10;;;;;;;;;;5040249;28;20029;-76
2022/04/29 11:57:20;;;;;;;15.13;3.30;;;;;;;;;;5040408;28;20017;-75
2022/04/29 11:59:46;;;;;;;14.30;3.70;;;;;;;;;;5041077;28;20584;-74
2022/04/29 12:02:15;;;;;;;14.43;3.85;;;;;;;;;;5041323;28;20039;-76
2022/04/29 12:04:52;;;;;;;6.90;2.78;;;;;;;;;;5041180;28;20025;-75
2022/04/29 12:07:18;;;;;;;12.73;3.92;;;;;;;;;;5043267;28;20022;-77
2022/04/29 12:09:44;;;;;;;23.60;4.80;;;;;;;;;;5047432;28;20037;-78
2022/04/29 12:12:23;;;;;;;12.05;3.70;;;;;;;;;;5047293;28;20036;-79
2022/04/29 12:14:49;;;;;;;11.10;3.45;;;;;;;;;;5051173;28;20029;-77
2022/04/29 12:17:19;;;;;;;11.68;3.03;;;;;;;;;;5056933;28;20026;-77
2022/04/29 12:19:48;;;;;;;8.18;3.20;;;;;;;;;;5056312;28;20006;-77
2022/04/29 12:22:27;;;;;;;10.27;3.45;;;;;;;;;;5051527;28;20021;-77
2022/04/29 12:24:53;;;;;;;10.68;3.47;;;;;;;;;;5041932;28;20159;-77
2022/04/29 12:27:27;;;;;;;16.25;3.70;;;;;;;;;;5041156;28;20060;-77
2022/04/29 12:35:27;;;;;;;9.77;3.20;;;;;;;;;;5038700;28;20071;-77
2022/04/29 12:37:56;;;;;;;7.93;3.10;;;;;;;;;;5038957;28;20029;-78
2022/04/29 12:40:29;;;;;;;12.65;3.70;;;;;;;;;;5037112;28;20029;-75
2022/04/29 12:43:11;;;;;;;15.73;3.75;;;;;;;;;;5035586;28;20025;-74
2022/04/29 12:45:37;;;;;;;9.02;3.75;;;;;;;;;;5038233;28;20029;-76
2022/04/29 12:48:07;;;;;;;9.25;4.38;;;;;;;;;;5037146;28;20045;-77
2022/04/29 12:50:37;;;;;;;14.93;4.10;;;;;;;;;;5037745;28;20113;-77
2022/04/29 12:53:03;;;;;;;10.95;3.58;;;;;;;;;;5037242;28;20523;-79
2022/04/29 12:55:30;;;;;;;18.60;3.85;;;;;;;;;;5035234;28;20521;-78
2022/04/29 12:58:08;;;;;;;14.88;3.80;;;;;;;;;;5034903;28;20025;-75
2022/04/29 13:00:34;;;;;;;16.13;3.78;;;;;;;;;;5035292;28;20032;-74
2022/04/29 13:03:01;;;;;;;6.00;3.20;;;;;;;;;;5035318;28;20036;-76
2022/04/29 13:05:27;;;;;;;11.85;3.60;;;;;;;;;;5035235;28;20493;-75
2022/04/29 13:07:54;;;;;;;9.05;3.55;;;;;;;;;;5034851;28;20036;-76
2022/04/29 13:10:20;;;;;;;21.67;12.18;;;;;;;;;;5034772;28;20111;-76
2022/04/29 13:12:46;;;;;;;14.27;5.45;;;;;;;;;;5034962;28;20025;-78
2022/04/29 13:15:12;;;;;;;12.85;3.60;;;;;;;;;;5034756;28;20502;-77
2022/04/29 13:17:38;;;;;;;10.15;3.28;;;;;;;;;;5035520;28;20033;-77
2022/04/29 13:20:05;;;;;;;11.45;3.97;;;;;;;;;;5037683;28;20040;-77
2022/04/29 13:22:31;;;;;;;10.30;2.90;;;;;;;;;;5039661;28;20022;-77
2022/04/29 13:25:00;;;;;;;10.02;3.05;;;;;;;;;;5039713;28;20072;-76
2022/04/29 13:27:26;;;;;;;14.35;3.20;;;;;;;;;;5044514;28;20033;-75
2022/04/29 13:29:51;;;;;;;14.38;2.80;;;;;;;;;;5035169;28;20038;-75
2022/04/29 13:32:17;;;;;;;11.70;2.88;;;;;;;;;;5032101;28;20033;-75
2022/04/29 13:34:43;;;;;;;4.95;2.20;;;;;;;;;;5033476;28;20034;-75
2022/04/29 13:37:09;;;;;;;8.93;2.50;;;;;;;;;;5034524;28;20155;-76
2022/04/29 13:39:35;;;;;;;9.52;3.00;;;;;;;;;;5034134;28;20506;-77
2022/04/29 13:42:01;;;;;;;9.15;2.63;;;;;;;;;;5035802;28;20013;-76
2022/04/29 13:44:28;;;;;;;8.27;2.50;;;;;;;;;;5035969;28;20029;-75
2022/04/29 13:46:54;;;;;;;8.82;2.28;;;;;;;;;;5037475;28;20025;-77
2022/04/29 13:49:20;;;;;;;6.68;2.45;;;;;;;;;;5036470;28;20029;-77
2022/04/29 13:51:46;;;;;;;12.18;2.85;;;;;;;;;;5036118;28;20896;-77
2022/04/29 13:54:12;;;;;;;10.30;2.70;;;;;;;;;;5036764;28;20029;-75
2022/04/29 13:56:38;;;;;;;12.45;3.80;;;;;;;;;;5035371;28;20029;-76
2022/04/29 13:59:04;;;;;;;11.00;4.07;;;;;;;;;;5034234;28;20026;-76
2022/04/29 14:01:31;;;;;;;15.68;5.45;;;;;;;;;;5032900;28;20474;-75
2022/04/29 14:03:57;;;;;;;9.82;4.63;;;;;;;;;;5034748;28;20048;-75
2022/04/29 14:06:23;;;;;;;9.90;2.72;;;;;;;;;;5033686;28;20026;-75
2022/04/29 14:08:48;;;;;;;12.43;3.38;;;;;;;;;;5034637;28;20587;-76
2022/04/29 14:11:15;;;;;;;7.10;2.35;;;;;;;;;;5033880;28;20069;-77
2022/04/29 14:13:41;;;;;;;10.43;3.13;;;;;;;;;;5034462;28;20029;-76
2022/04/29 14:16:07;;;;;;;7.75;2.50;;;;;;;;;;5032710;28;20045;-77
2022/04/29 14:18:33;;;;;;;10.65;3.42;;;;;;;;;;5034136;28;20036;-76
2022/04/29 14:20:59;;;;;;;18.55;8.23;;;;;;;;;;5034618;28;20021;-77
2022/04/29 14:23:25;;;;;;;16.20;4.35;;;;;;;;;;5034833;28;20438;-77
2022/04/29 14:25:51;;;;;;;17.77;3.10;;;;;;;;;;5033796;28;20021;-78
2022/04/29 14:28:17;;;;;;;13.75;3.05;;;;;;;;;;5034530;28;20098;-76
2022/04/29 14:30:43;;;;;;;13.68;3.17;;;;;;;;;;5034175;28;20415;-76
2022/04/29 14:33:09;;;;;;;8.50;2.85;;;;;;;;;;5033207;28;20022;-75
2022/04/29 14:35:34;;;;;;;8.15;2.97;;;;;;;;;;5032237;28;20045;-77
2022/04/29 14:38:00;;;;;;;14.30;4.22;;;;;;;;;;5032966;28;20041;-76
2022/04/29 14:40:26;;;;;;;12.38;3.25;;;;;;;;;;5033300;28;20031;-75
2022/04/29 14:42:53;;;;;;;12.75;3.80;;;;;;;;;;5032899;28;20037;-78
2022/04/29 14:45:19;;;;;;;8.60;2.88;;;;;;;;;;5039863;28;20079;-76
2022/04/29 14:47:47;;;;;;;9.95;4.18;;;;;;;;;;5046884;28;20514;-75
2022/04/29 14:50:14;;;;;;;16.90;3.88;;;;;;;;;;5039920;28;20431;-76
2022/04/29 14:52:41;;;;;;;10.70;3.28;;;;;;;;;;5032725;28;20025;-75
2022/04/29 14:55:07;;;;;;;11.70;3.40;;;;;;;;;;5032015;28;20033;-76
2022/04/29 14:57:35;;;;;;;7.47;2.90;;;;;;;;;;5032367;28;20036;-79
2022/04/29 15:00:01;;;;;;;9.30;4.35;;;;;;;;;;5033181;28;20013;-78
2022/04/29 15:02:27;;;;;;;20.10;5.90;;;;;;;;;;5032973;28;20025;-77